Huvudsida
METAR-TAF:

METAR-TAF

Flygplatser :

Tjita, Ryssland

latitud: 52-05N, longitud: 113-29E, höjd: 685 m

Aktuellt väderrapport

Denna rapport gjordes för 27 minuter sedan, klockan 00:30 UTC
Vind 2 kt från väst
Temperatur -36°C
Fuktighet 66%
Tryck 1022 hPa
Sikt 10 km eller mer

METAR: UIAA 200030Z 27001MPS 9999 NSC M36/M40 Q1022 R29/450155 NOSIG RMK QFE708/0944

Tid: 09:57 (00:57 UTC)

Väderprognos

Denna rapport gjordes för 1 timme och 57 minuter sedan, klockan 23:00 UTC
Prognos gäller från 20 kl. 00 UTC till 20 kl. 24 UTC
Vind 6 kt från väst i byarna ända upp till 17 kt
Sikt 10 km eller mer

TAF: UIAA 192300Z 2000/2024 27003G09MPS 9999 NSC

Aktuella väderrapporter och prognoser från 4000 flygplatser (METAR- och TAF-rapporter).

De tillgängliga stationerna syns som gula och röda prickar på kartan.

För musen över prickarna för att se namnen på stationerna.

Klicka sedan för att få väderrapporter och prognoser.

För att ändra kartan: Klicka på de gröna knapparna med ett svart kors på för att zooma in; den gröna knappen med ett streck på för att zooma ut; eller på de gröna pilarna för angränsande kartor.


METAR-TAF: